Time;durP1;ratioP1;P1;durP2;ratioP2;P2;SDS_P1;SDS_P2;PMS_P1;PMS_P2;Temp;Humidity;BMP_temperature;BMP_pressure;BME280_temperature;BME280_humidity;BME280_pressure;Samples;Min_cycle;Max_cycle;Signal;HPM_P1;HPM_P2
2024/03/24 00:00:17;;;;;;;2.83;1.50;;;;;;;19.96;53.53;96835.66;5010464;28;20341;-26
2024/03/24 00:02:43;;;;;;;1.27;1.17;;;;;;;19.95;53.29;96833.91;5003399;28;20735;-28
2024/03/24 00:05:08;;;;;;;1.50;1.40;;;;;;;19.95;53.52;96836.47;5006649;28;20218;-26
2024/03/24 00:07:34;;;;;;;1.37;1.27;;;;;;;19.96;53.38;96830.56;5002313;28;20210;-28
2024/03/24 00:09:59;;;;;;;1.10;1.10;;;;;;;19.95;53.45;96823.72;5005820;28;20210;-27
2024/03/24 00:12:25;;;;;;;1.53;1.43;;;;;;;19.95;53.50;96821.16;5003987;28;21336;-26
2024/03/24 00:14:50;;;;;;;1.47;1.37;;;;;;;19.89;53.31;96804.03;4997369;28;20645;-29
2024/03/24 00:17:16;;;;;;;1.50;1.40;;;;;;;19.94;53.41;96810.13;5000650;28;20198;-28
2024/03/24 00:19:42;;;;;;;1.30;1.20;;;;;;;19.97;53.19;96809.31;5004522;28;20321;-27
2024/03/24 00:22:07;;;;;;;1.43;1.33;;;;;;;19.96;53.41;96807.59;5004217;28;20589;-27
2024/03/24 00:24:33;;;;;;;1.30;1.20;;;;;;;19.96;53.27;96810.16;5002924;28;20304;-27
2024/03/24 00:26:59;;;;;;;1.47;1.20;;;;;;;19.94;53.30;96807.56;5008797;28;20214;-29
2024/03/24 00:29:25;;;;;;;1.30;1.20;;;;;;;19.92;53.32;96805.78;4998449;28;20210;-28
2024/03/24 00:31:51;;;;;;;1.23;1.10;;;;;;;19.90;53.30;96803.19;5002926;28;20221;-26
2024/03/24 00:34:17;;;;;;;1.30;1.20;;;;;;;19.92;53.39;96803.25;4991055;28;20601;-27
2024/03/24 00:36:42;;;;;;;1.40;1.30;;;;;;;19.91;53.39;96809.19;5001894;28;20225;-27
2024/03/24 00:39:08;;;;;;;1.40;1.30;;;;;;;19.93;53.46;96799.88;5014087;28;20217;-29
2024/03/24 00:41:34;;;;;;;1.10;1.10;;;;;;;19.92;53.28;96793.03;5002116;28;20199;-27
2024/03/24 00:44:00;;;;;;;1.50;1.40;;;;;;;19.94;53.45;96789.72;4997982;28;20221;-29
2024/03/24 00:46:26;;;;;;;1.50;1.40;;;;;;;19.94;53.39;96786.28;4998755;28;20345;-29
2024/03/24 00:48:52;;;;;;;1.27;1.17;;;;;;;19.94;53.35;96792.28;4994992;28;20286;-28
2024/03/24 00:51:19;;;;;;;1.30;1.20;;;;;;;19.95;53.32;96788.00;4976848;28;20210;-27
2024/03/24 00:53:44;;;;;;;1.30;1.20;;;;;;;19.94;53.29;96784.63;5005233;28;20229;-26
2024/03/24 00:56:10;;;;;;;1.40;1.30;;;;;;;19.93;53.33;96782.88;5007149;28;20672;-29
2024/03/24 00:58:37;;;;;;;1.60;1.50;;;;;;;19.94;53.41;96776.97;5000819;28;20317;-31
2024/03/24 01:01:04;;;;;;;1.40;1.30;;;;;;;19.93;53.38;96765.03;5005754;28;20218;-28
2024/03/24 01:03:30;;;;;;;1.10;1.10;;;;;;;19.94;53.04;96759.13;4996759;28;20225;-29
2024/03/24 01:05:55;;;;;;;1.20;1.20;;;;;;;19.92;53.38;96753.13;4994356;28;20210;-28
2024/03/24 01:08:21;;;;;;;1.40;1.20;;;;;;;19.89;53.25;96747.94;4999809;28;20242;-26
2024/03/24 01:10:47;;;;;;;1.20;1.20;;;;;;;19.93;53.37;96749.72;5000665;28;20210;-29
2024/03/24 01:13:12;;;;;;;1.10;1.10;;;;;;;19.93;53.29;96749.72;4996776;28;20225;-29
2024/03/24 01:15:44;;;;;;;1.33;1.23;;;;;;;19.93;53.37;96739.53;4994476;28;20214;-27
2024/03/24 01:18:10;;;;;;;1.33;1.23;;;;;;;19.95;53.33;96737.00;5005544;28;20194;-26
2024/03/24 01:20:35;;;;;;;1.37;1.27;;;;;;;19.91;53.38;96728.44;4998008;28;20658;-27
2024/03/24 01:23:01;;;;;;;1.30;1.20;;;;;;;19.91;53.62;96725.03;4999822;28;20263;-28
2024/03/24 01:25:27;;;;;;;1.20;1.20;;;;;;;19.91;53.49;96722.47;4999559;28;20206;-27
2024/03/24 01:27:52;;;;;;;1.40;1.30;;;;;;;19.91;53.25;96714.81;5003538;28;20549;-24
2024/03/24 01:30:18;;;;;;;1.40;1.30;;;;;;;19.92;53.44;96711.44;5000601;28;20210;-28
2024/03/24 01:32:43;;;;;;;1.37;1.27;;;;;;;19.93;53.35;96710.63;5005632;28;20281;-26
2024/03/24 01:35:09;;;;;;;1.40;1.30;;;;;;;19.93;53.28;96708.09;5002862;28;20284;-27
2024/03/24 01:37:35;;;;;;;1.40;1.30;;;;;;;19.93;53.43;96696.19;5003762;28;20233;-27
2024/03/24 01:40:02;;;;;;;1.23;1.20;;;;;;;19.93;53.25;96693.63;4998627;28;20217;-26
2024/03/24 01:42:28;;;;;;;1.10;1.10;;;;;;;19.93;53.35;96695.34;4995967;28;20203;-27
2024/03/24 01:44:53;;;;;;;1.10;1.10;;;;;;;19.93;53.39;96693.63;4997758;28;20298;-26
2024/03/24 01:47:19;;;;;;;1.10;1.10;;;;;;;19.92;53.42;96686.81;4994883;28;20210;-25
2024/03/24 01:49:45;;;;;;;1.20;1.20;;;;;;;19.90;53.20;96677.41;5005126;28;20205;-25
2024/03/24 01:52:12;;;;;;;1.13;1.13;;;;;;;19.94;53.30;96686.84;4988988;28;20297;-27
2024/03/24 01:54:38;;;;;;;1.40;1.30;;;;;;;19.94;53.42;96669.00;4996384;28;20233;-27
2024/03/24 01:57:04;;;;;;;1.17;1.13;;;;;;;19.93;53.05;96668.13;4978369;28;20578;-28
2024/03/24 01:59:29;;;;;;;1.30;1.20;;;;;;;19.93;53.27;96665.56;5003071;28;20254;-26
2024/03/24 02:01:55;;;;;;;1.00;1.00;;;;;;;19.93;53.25;96667.28;4984881;28;20578;-27
2024/03/24 02:04:21;;;;;;;1.20;1.10;;;;;;;19.94;53.25;96662.22;4999476;28;20230;-28
2024/03/24 02:06:46;;;;;;;1.10;1.10;;;;;;;19.94;53.16;96651.16;5001960;28;20297;-27
2024/03/24 02:09:12;;;;;;;1.20;1.10;;;;;;;19.93;53.38;96650.28;4996873;28;20833;-28
2024/03/24 02:11:37;;;;;;;1.10;1.10;;;;;;;19.92;53.23;96655.34;4996654;28;20257;-27
2024/03/24 02:14:03;;;;;;;1.23;1.17;;;;;;;19.91;53.30;96653.63;5005841;28;20703;-31
2024/03/24 02:16:29;;;;;;;1.20;1.20;;;;;;;19.90;53.29;96649.38;5001457;28;20206;-29
2024/03/24 02:18:54;;;;;;;1.10;1.10;;;;;;;19.90;53.24;96644.28;5004376;28;20218;-26
2024/03/24 02:21:20;;;;;;;1.20;1.10;;;;;;;19.92;53.24;96640.03;4999188;28;20206;-27
2024/03/24 02:23:48;;;;;;;1.20;1.20;;;;;;;19.92;53.29;96642.59;5004565;28;20593;-29
2024/03/24 02:26:14;;;;;;;1.10;1.10;;;;;;;19.93;53.23;96631.59;5006372;28;20201;-26
2024/03/24 02:28:40;;;;;;;1.20;1.20;;;;;;;19.93;53.39;96634.13;5004659;28;20206;-27
2024/03/24 02:31:06;;;;;;;1.40;1.30;;;;;;;19.92;53.28;96628.16;4985911;28;20680;-26
2024/03/24 02:33:32;;;;;;;1.17;1.17;;;;;;;19.93;53.35;96623.94;5008107;28;20228;-29
2024/03/24 02:35:57;;;;;;;1.37;1.27;;;;;;;19.94;53.20;96628.19;5002931;28;20624;-28
2024/03/24 02:38:23;;;;;;;1.40;1.30;;;;;;;19.93;53.19;96626.50;5003384;28;20210;-38
2024/03/24 02:40:48;;;;;;;1.50;1.23;;;;;;;19.93;53.22;96634.13;5012096;28;20316;-27
2024/03/24 02:43:14;;;;;;;1.27;1.17;;;;;;;19.93;53.30;96626.50;5001014;28;20718;-28
2024/03/24 02:45:40;;;;;;;1.23;1.20;;;;;;;19.93;53.27;96629.03;5006658;28;20205;-28
2024/03/24 02:48:06;;;;;;;1.20;1.10;;;;;;;19.93;53.31;96626.50;5005125;28;20369;-30
2024/03/24 02:50:31;;;;;;;1.13;1.10;;;;;;;19.93;53.36;96618.84;5005350;28;20224;-27
2024/03/24 02:52:57;;;;;;;1.10;1.10;;;;;;;19.93;53.39;96608.63;5004966;28;20340;-28
2024/03/24 02:55:25;;;;;;;1.30;1.20;;;;;;;19.94;53.25;96613.78;5007687;28;20585;-27
2024/03/24 02:57:51;;;;;;;1.30;1.20;;;;;;;19.94;53.15;96602.69;4999604;28;20578;-29
2024/03/24 03:00:17;;;;;;;1.13;1.10;;;;;;;19.92;53.15;96609.44;4997007;28;20226;-29
2024/03/24 03:02:43;;;;;;;1.17;1.17;;;;;;;19.90;53.42;96617.06;5004371;28;20621;-28
2024/03/24 03:05:09;;;;;;;1.20;1.10;;;;;;;19.89;53.25;96610.25;5004581;28;20210;-30
2024/03/24 03:07:35;;;;;;;1.30;1.20;;;;;;;19.90;53.42;96604.31;5005284;28;20208;-28
2024/03/24 03:10:04;;;;;;;1.10;1.10;;;;;;;19.91;53.29;96605.19;5002809;28;20198;-34
2024/03/24 03:12:29;;;;;;;1.20;1.20;;;;;;;19.92;53.30;96599.25;5000770;28;20257;-28
2024/03/24 03:14:55;;;;;;;1.30;1.20;;;;;;;19.93;52.96;96598.44;5001139;28;20308;-28
2024/03/24 03:17:21;;;;;;;1.23;1.10;;;;;;;19.92;53.12;96592.47;5002124;28;20219;-26
2024/03/24 03:19:46;;;;;;;1.37;1.27;;;;;;;19.93;53.12;96593.34;5007583;28;20221;-28
2024/03/24 03:22:12;;;;;;;1.10;1.10;;;;;;;19.93;53.39;96596.72;5002619;28;20213;-27
2024/03/24 03:24:38;;;;;;;1.10;1.10;;;;;;;19.93;53.11;96589.06;5003880;28;20612;-28
2024/03/24 03:27:04;;;;;;;1.10;1.10;;;;;;;19.93;53.25;96588.25;5000723;28;20610;-28
2024/03/24 03:29:29;;;;;;;1.27;1.20;;;;;;;19.93;53.20;96585.69;4993855;28;20230;-26
2024/03/24 03:31:55;;;;;;;1.10;1.10;;;;;;;19.93;53.21;96580.59;4996528;28;20814;-27
2024/03/24 03:34:21;;;;;;;1.13;1.00;;;;;;;19.93;53.09;96583.97;5002848;28;20237;-28
2024/03/24 03:36:46;;;;;;;1.10;1.10;;;;;;;19.93;53.29;96578.88;5008984;28;20639;-26
2024/03/24 03:39:12;;;;;;;1.07;1.07;;;;;;;19.92;53.23;96574.63;5009447;28;20226;-26
2024/03/24 03:41:37;;;;;;;1.10;1.10;;;;;;;19.94;53.15;96572.09;5003954;28;20581;-27
2024/03/24 03:44:03;;;;;;;1.33;1.27;;;;;;;19.93;53.17;96575.50;5004753;28;20222;-26
2024/03/24 03:46:28;;;;;;;1.00;1.00;;;;;;;19.94;53.39;96572.97;4998989;28;20256;-32
2024/03/24 03:48:54;;;;;;;1.30;1.20;;;;;;;19.91;53.12;96580.56;4993684;28;20199;-27
2024/03/24 03:51:29;;;;;;;1.10;1.10;;;;;;;19.90;52.87;96578.81;4998410;28;20226;-27
2024/03/24 03:53:58;;;;;;;1.10;1.10;;;;;;;19.90;53.14;96583.06;4997365;28;20228;-28
2024/03/24 03:56:23;;;;;;;1.20;1.20;;;;;;;19.88;53.23;96583.03;5007726;28;20202;-27
2024/03/24 03:58:49;;;;;;;1.20;1.10;;;;;;;19.89;53.26;96584.75;4999921;28;20226;-27
2024/03/24 04:01:15;;;;;;;1.10;1.10;;;;;;;19.90;53.14;96578.81;5002664;28;20298;-28
2024/03/24 04:03:41;;;;;;;1.10;1.10;;;;;;;19.91;53.11;96578.00;5001604;28;20757;-27
2024/03/24 04:06:06;;;;;;;0.97;0.97;;;;;;;19.91;53.01;96580.56;4999544;28;20199;-27
2024/03/24 04:08:32;;;;;;;1.30;1.20;;;;;;;19.92;53.17;96578.84;4997528;28;20217;-28
2024/03/24 04:10:57;;;;;;;1.00;1.00;;;;;;;19.92;53.25;96569.50;4997682;28;20214;-29
2024/03/24 04:13:23;;;;;;;1.07;1.07;;;;;;;19.92;53.10;96574.63;5000487;28;20300;-26
2024/03/24 04:15:48;;;;;;;1.17;1.17;;;;;;;19.92;53.29;96571.19;4999627;28;20198;-26
2024/03/24 04:18:14;;;;;;;1.00;1.00;;;;;;;19.91;53.10;96564.38;5002689;28;20309;-27
2024/03/24 04:20:40;;;;;;;1.00;1.00;;;;;;;19.92;53.29;96577.16;4998646;28;20606;-29
2024/03/24 04:23:05;;;;;;;1.17;1.17;;;;;;;19.93;53.18;96578.03;5000527;28;20677;-26
2024/03/24 04:25:31;;;;;;;1.17;1.17;;;;;;;19.93;53.02;96583.97;4998239;28;20198;-26
2024/03/24 04:27:57;;;;;;;1.00;1.00;;;;;;;19.94;53.05;96577.19;5004881;28;20214;-27
2024/03/24 04:30:22;;;;;;;1.20;1.10;;;;;;;19.93;53.12;96568.69;5000148;28;20325;-28
2024/03/24 04:32:48;;;;;;;0.90;0.90;;;;;;;19.93;53.22;96575.50;5004518;28;20256;-32
2024/03/24 04:35:13;;;;;;;1.00;1.00;;;;;;;19.91;53.06;96575.47;5001495;28;20206;-25
2024/03/24 04:37:39;;;;;;;0.90;0.90;;;;;;;19.90;53.20;96577.97;4997773;28;20202;-37
2024/03/24 04:40:08;;;;;;;1.00;1.00;;;;;;;19.88;53.30;96575.41;4980989;28;20225;-30
2024/03/24 04:42:35;;;;;;;1.00;1.00;;;;;;;19.88;53.08;96579.63;4996633;28;20206;-29
2024/03/24 04:45:01;;;;;;;1.00;1.00;;;;;;;19.89;53.24;96579.66;5004144;28;20693;-27
2024/03/24 04:47:28;;;;;;;1.10;1.10;;;;;;;19.90;53.21;96573.72;4999382;28;20213;-27
2024/03/24 04:49:53;;;;;;;1.10;1.10;;;;;;;19.91;53.03;96578.00;4997951;28;20211;-27
2024/03/24 04:52:19;;;;;;;1.07;1.07;;;;;;;19.92;53.15;96578.84;4997002;28;20206;-28
2024/03/24 04:54:45;;;;;;;0.90;0.90;;;;;;;19.91;53.29;96570.34;5011335;28;20272;-36
2024/03/24 04:57:10;;;;;;;0.97;0.97;;;;;;;19.85;53.10;96551.50;5002960;28;20257;-26
2024/03/24 04:59:36;;;;;;;1.10;1.10;;;;;;;19.92;53.13;96564.41;4998590;28;20293;-28
2024/03/24 05:02:02;;;;;;;1.10;1.10;;;;;;;19.92;53.21;96563.53;4996159;28;20206;-28
2024/03/24 05:04:27;;;;;;;1.30;1.20;;;;;;;19.92;53.04;96563.53;4992173;28;20602;-26
2024/03/24 05:06:53;;;;;;;1.37;1.27;;;;;;;19.93;53.19;96562.75;4997432;28;20206;-26
2024/03/24 05:09:20;;;;;;;1.00;1.00;;;;;;;19.91;53.14;96560.16;4995913;28;20207;-30
2024/03/24 05:11:46;;;;;;;1.10;1.10;;;;;;;19.92;53.05;96569.50;4993726;28;20206;-30
2024/03/24 05:14:12;;;;;;;1.00;1.00;;;;;;;19.92;53.00;96566.09;4995119;28;20324;-32
2024/03/24 05:16:38;;;;;;;1.10;1.10;;;;;;;19.92;53.12;96561.88;4995590;28;20233;-26
2024/03/24 05:19:05;;;;;;;1.00;1.00;;;;;;;19.93;53.05;96561.03;5005618;28;20225;-29
2024/03/24 05:21:31;;;;;;;1.00;1.00;;;;;;;19.94;53.05;96561.91;5008098;28;20205;-30
2024/03/24 05:23:56;;;;;;;1.10;1.00;;;;;;;19.91;53.02;96559.28;4993545;28;20222;-27
2024/03/24 05:26:22;;;;;;;1.53;1.30;;;;;;;19.91;53.19;96567.81;4990379;28;20737;-28
2024/03/24 05:28:48;;;;;;;0.90;0.90;;;;;;;19.89;53.32;96569.47;4997405;28;20203;-27
2024/03/24 05:31:14;;;;;;;1.10;1.10;;;;;;;19.90;53.20;96576.25;4996693;28;20194;-27
2024/03/24 05:33:39;;;;;;;1.00;1.00;;;;;;;19.91;53.22;96578.00;4996848;28;20233;-27
2024/03/24 05:36:05;;;;;;;1.00;1.00;;;;;;;19.93;52.44;96583.13;4997050;28;20572;-30
2024/03/24 05:38:34;;;;;;;1.30;1.20;;;;;;;19.92;52.77;96589.91;4996831;28;20202;-28
2024/03/24 05:41:02;;;;;;;1.10;1.10;;;;;;;19.93;49.79;96585.69;4990858;28;20623;-26
2024/03/24 05:43:28;;;;;;;1.47;1.27;;;;;;;19.92;46.76;96584.81;4996746;28;20285;-26
2024/03/24 05:45:54;;;;;;;5.77;1.50;;;;;;;19.91;45.01;96580.56;4999909;28;20661;-27
2024/03/24 05:48:23;;;;;;;1.50;1.40;;;;;;;19.89;45.17;96579.66;4996846;28;20202;-29
2024/03/24 05:50:58;;;;;;;2.20;1.60;;;;;;;19.89;44.65;96569.47;4990724;28;20214;-27
2024/03/24 05:53:24;;;;;;;1.80;1.40;;;;;;;19.89;44.80;96576.22;4995085;28;20217;-28
2024/03/24 05:55:50;;;;;;;2.90;1.50;;;;;;;19.87;44.26;96571.09;4997459;28;20251;-30
2024/03/24 05:58:19;;;;;;;1.50;1.40;;;;;;;19.87;43.77;96575.38;4996217;28;20203;-30
2024/03/24 06:00:48;;;;;;;1.93;1.67;;;;;;;19.86;43.63;96576.16;4995501;28;20222;-26
2024/03/24 06:03:14;;;;;;;1.73;1.30;;;;;;;19.86;44.09;96578.72;4999377;28;20231;-30
2024/03/24 06:05:40;;;;;;;2.57;1.50;;;;;;;19.85;43.25;96574.47;4985116;28;20620;-26
2024/03/24 06:08:09;;;;;;;1.50;1.40;;;;;;;19.85;43.23;96566.81;4996073;28;20552;-27
2024/03/24 06:10:35;;;;;;;1.40;1.30;;;;;;;19.81;43.25;96581.16;4997904;28;20198;-28
2024/03/24 06:13:01;;;;;;;1.53;1.43;;;;;;;19.77;44.29;96583.63;4981697;28;20554;-26
2024/03/24 06:15:26;;;;;;;2.07;1.60;;;;;;;19.74;43.34;96576.78;4997326;28;20212;-28
2024/03/24 06:17:52;;;;;;;1.67;1.47;;;;;;;19.74;44.37;96581.00;4995313;28;20198;-26
2024/03/24 06:20:18;;;;;;;2.23;1.40;;;;;;;19.74;44.78;96588.66;5000479;28;20240;-26
2024/03/24 06:22:43;;;;;;;1.80;1.57;;;;;;;19.74;45.24;96584.44;5004350;28;20208;-31
2024/03/24 06:25:09;;;;;;;1.60;1.43;;;;;;;19.75;46.28;96590.41;5001280;28;20289;-29
2024/03/24 06:27:35;;;;;;;1.30;1.20;;;;;;;19.76;47.04;96595.53;5000837;28;20660;-25
2024/03/24 06:30:01;;;;;;;1.50;1.40;;;;;;;19.76;47.74;96587.00;5003613;28;20206;-30
2024/03/24 06:32:27;;;;;;;2.70;1.30;;;;;;;19.77;48.09;96591.28;5000956;28;20219;-32
2024/03/24 06:34:52;;;;;;;1.50;1.40;;;;;;;19.78;48.43;96595.56;4995848;28;20229;-28
2024/03/24 06:37:18;;;;;;;2.43;1.33;;;;;;;19.80;48.05;96594.75;4997752;28;20703;-26
2024/03/24 06:39:43;;;;;;;5.50;1.57;;;;;;;19.82;45.69;96594.78;4997115;28;20229;-27
2024/03/24 06:42:09;;;;;;;3.30;1.43;;;;;;;19.79;43.61;96580.31;4998842;28;20201;-26
2024/03/24 06:44:40;;;;;;;3.30;1.40;;;;;;;19.79;43.52;96584.53;4995385;28;20574;-27
2024/03/24 06:47:06;;;;;;;1.20;1.10;;;;;;;19.79;44.30;96584.53;4996429;28;20203;-27
2024/03/24 06:49:32;;;;;;;2.07;1.40;;;;;;;19.77;45.56;96593.81;4996465;28;20279;-28
2024/03/24 06:51:57;;;;;;;1.63;1.53;;;;;;;19.76;46.38;96589.56;4996169;28;20206;-26
2024/03/24 06:54:23;;;;;;;1.00;1.00;;;;;;;19.77;47.13;96598.91;4995646;28;20218;-28
2024/03/24 06:56:49;;;;;;;2.97;1.20;;;;;;;19.76;47.41;96599.75;4996500;28;20260;-26
2024/03/24 06:59:14;;;;;;;1.50;1.30;;;;;;;19.72;47.90;96596.28;4996443;28;20221;-28
2024/03/24 07:01:40;;;;;;;3.63;1.33;;;;;;;19.72;47.97;96592.88;4995892;28;20744;-26
2024/03/24 07:04:06;;;;;;;2.10;1.30;;;;;;;19.71;48.38;96594.56;4980151;28;20301;-27
2024/03/24 07:06:32;;;;;;;1.70;1.30;;;;;;;19.71;48.34;96593.69;4999685;28;20265;-28
2024/03/24 07:08:58;;;;;;;3.63;1.30;;;;;;;19.70;48.60;96586.88;4999002;28;20199;-27
2024/03/24 07:11:24;;;;;;;1.53;1.40;;;;;;;19.71;48.73;96594.56;5000090;28;20202;-27
2024/03/24 07:13:49;;;;;;;1.13;1.10;;;;;;;19.65;49.07;96581.69;4999665;28;20228;-30
2024/03/24 07:16:15;;;;;;;1.40;1.30;;;;;;;19.74;49.16;96603.94;4999996;28;20209;-27
2024/03/24 07:18:41;;;;;;;1.30;1.20;;;;;;;19.73;49.28;96603.13;5002590;28;20240;-27
2024/03/24 07:21:07;;;;;;;1.40;1.30;;;;;;;19.75;49.31;96615.91;5009022;28;20578;-26
2024/03/24 07:23:33;;;;;;;1.50;1.40;;;;;;;19.76;49.38;96612.50;5004040;28;20222;-28
2024/03/24 07:25:58;;;;;;;1.20;1.10;;;;;;;19.74;49.38;96617.56;5005932;28;20217;-28
2024/03/24 07:28:24;;;;;;;2.00;1.20;;;;;;;19.76;49.44;96623.56;5003869;28;20205;-27
2024/03/24 07:30:50;;;;;;;1.37;1.27;;;;;;;19.77;49.50;96621.88;5003012;28;20676;-28
2024/03/24 07:33:15;;;;;;;1.67;1.10;;;;;;;19.77;49.76;96627.84;4994148;28;20230;-26
2024/03/24 07:35:41;;;;;;;1.50;1.40;;;;;;;19.78;49.74;96629.53;5002093;28;20290;-27
2024/03/24 07:38:06;;;;;;;1.17;1.13;;;;;;;19.79;49.85;96628.75;5008237;28;20202;-27
2024/03/24 07:40:32;;;;;;;1.20;1.10;;;;;;;19.79;49.82;96620.22;5005010;28;20218;-28
2024/03/24 07:42:58;;;;;;;1.30;1.20;;;;;;;19.77;49.87;96627.84;5005341;28;20265;-29
2024/03/24 07:45:24;;;;;;;1.33;1.23;;;;;;;19.75;50.07;96626.09;5003928;28;20696;-26
2024/03/24 07:47:51;;;;;;;1.60;1.30;;;;;;;19.74;50.06;96622.66;5002483;28;20206;-27
2024/03/24 07:50:16;;;;;;;1.73;1.30;;;;;;;19.74;50.14;96629.44;5005413;28;20586;-27
2024/03/24 07:52:43;;;;;;;1.10;1.10;;;;;;;19.73;50.11;96623.50;5002001;28;20203;-28
2024/03/24 07:55:08;;;;;;;2.87;1.17;;;;;;;19.75;50.30;96610.78;5003162;28;20284;-26
2024/03/24 07:57:34;;;;;;;2.67;1.37;;;;;;;19.75;50.24;96616.72;5004362;28;20206;-27
2024/03/24 08:00:00;;;;;;;1.37;1.27;;;;;;;19.78;50.33;96621.91;5001938;28;20280;-26
2024/03/24 08:02:25;;;;;;;1.20;1.10;;;;;;;19.78;50.28;96619.34;5001970;28;20203;-27
2024/03/24 08:04:51;;;;;;;1.10;1.10;;;;;;;19.77;50.55;96615.09;5002673;28;20283;-28
2024/03/24 08:07:17;;;;;;;1.00;1.00;;;;;;;19.77;50.45;96610.00;5004519;28;20208;-26
2024/03/24 08:09:42;;;;;;;1.30;1.20;;;;;;;19.78;50.42;96614.25;5001698;28;20205;-27
2024/03/24 08:12:08;;;;;;;1.20;1.10;;;;;;;19.78;50.46;96609.16;5007988;28;20257;-29
2024/03/24 08:14:33;;;;;;;1.30;1.20;;;;;;;19.77;50.42;96606.56;4988511;28;20226;-30
2024/03/24 08:16:59;;;;;;;1.30;1.10;;;;;;;19.78;50.51;96619.34;4986070;28;20210;-27
2024/03/24 08:19:25;;;;;;;2.20;1.23;;;;;;;19.80;50.42;96616.84;5006198;28;20225;-26
2024/03/24 08:21:51;;;;;;;1.53;1.30;;;;;;;19.80;50.63;96616.84;4999768;28;20206;-27
2024/03/24 08:24:17;;;;;;;2.60;1.00;;;;;;;19.81;50.52;96618.56;5003271;28;20226;-29
2024/03/24 08:26:43;;;;;;;1.33;1.23;;;;;;;19.80;50.71;96614.28;5008836;28;20202;-28
2024/03/24 08:29:09;;;;;;;1.30;1.20;;;;;;;19.78;50.64;96611.69;5000530;28;20198;-27
2024/03/24 08:31:35;;;;;;;1.00;1.00;;;;;;;19.75;50.80;96614.19;4995969;28;20574;-28
2024/03/24 08:34:00;;;;;;;1.20;1.10;;;;;;;19.75;50.63;96613.34;4997764;28;20226;-27
2024/03/24 08:36:26;;;;;;;1.10;1.10;;;;;;;19.75;50.82;96615.91;5005808;28;20251;-27
2024/03/24 08:38:52;;;;;;;0.90;0.90;;;;;;;19.75;50.73;96610.78;4999076;28;20214;-27
2024/03/24 08:41:17;;;;;;;1.20;1.10;;;;;;;19.76;50.78;96615.06;4997380;28;20285;-27
2024/03/24 08:43:44;;;;;;;1.60;1.30;;;;;;;19.75;50.40;96616.72;5000600;28;20229;-26
2024/03/24 08:46:09;;;;;;;1.47;1.30;;;;;;;19.78;50.80;96610.84;5000146;28;20656;-27
2024/03/24 08:48:35;;;;;;;1.40;1.23;;;;;;;19.78;50.98;96610.84;4996061;28;20213;-31
2024/03/24 08:51:00;;;;;;;0.97;0.97;;;;;;;19.79;50.72;96616.00;4998819;28;20213;-27
2024/03/24 08:53:26;;;;;;;1.00;1.00;;;;;;;19.79;51.02;96615.13;4998986;28;20233;-27
2024/03/24 08:55:52;;;;;;;1.17;1.10;;;;;;;19.80;50.94;96616.84;4984050;28;20297;-26
2024/03/24 08:58:17;;;;;;;1.10;1.10;;;;;;;19.80;50.92;96630.44;5003087;28;20209;-27
2024/03/24 09:00:45;;;;;;;1.37;1.10;;;;;;;19.81;50.89;96632.16;5008350;28;20221;-26
2024/03/24 09:03:11;;;;;;;1.10;1.10;;;;;;;19.81;50.88;96629.59;4997782;28;20765;-27
2024/03/24 09:05:36;;;;;;;0.97;0.97;;;;;;;19.82;51.01;96628.81;5007807;28;20201;-28
2024/03/24 09:08:02;;;;;;;1.73;1.23;;;;;;;19.81;51.08;96629.59;4999819;28;20202;-29
2024/03/24 09:10:28;;;;;;;0.90;0.90;;;;;;;19.83;51.04;96627.09;5006047;28;20617;-27
2024/03/24 09:12:53;;;;;;;1.13;1.13;;;;;;;19.83;51.02;96622.88;4999911;28;20694;-27
2024/03/24 09:15:19;;;;;;;0.90;0.90;;;;;;;19.80;51.12;96619.38;5002914;28;20206;-26
2024/03/24 09:17:45;;;;;;;1.87;1.10;;;;;;;19.76;51.07;96610.81;5002642;28;20201;-27
2024/03/24 09:20:11;;;;;;;1.10;1.10;;;;;;;19.76;51.04;96612.50;5004071;28;20593;-29
2024/03/24 09:22:36;;;;;;;1.30;1.20;;;;;;;19.76;51.06;96604.84;5000595;28;20210;-26
2024/03/24 09:25:02;;;;;;;1.10;1.00;;;;;;;19.76;50.98;96608.28;5004198;28;20233;-26
2024/03/24 09:27:28;;;;;;;1.00;1.00;;;;;;;19.77;51.31;96612.53;4997279;28;20211;-27
2024/03/24 09:29:53;;;;;;;1.00;1.00;;;;;;;19.78;51.13;96613.41;5004257;28;20340;-28
2024/03/24 09:32:19;;;;;;;1.40;1.10;;;;;;;19.78;51.23;96618.50;5004516;28;20627;-28
2024/03/24 09:34:45;;;;;;;1.13;1.13;;;;;;;19.79;51.25;96615.13;4994472;28;20314;-30
2024/03/24 09:37:12;;;;;;;1.13;1.03;;;;;;;19.79;51.28;96610.03;4990873;28;20201;-28
2024/03/24 09:39:37;;;;;;;2.53;1.23;;;;;;;19.78;48.46;96614.25;4995569;28;20233;-28
2024/03/24 09:42:06;;;;;;;1.60;1.43;;;;;;;19.78;47.67;96608.31;5007507;28;20588;-26
2024/03/24 09:44:32;;;;;;;1.97;1.40;;;;;;;19.79;48.75;96604.91;4973611;28;20230;-28
2024/03/24 09:46:59;;;;;;;2.17;1.30;;;;;;;19.78;49.39;96609.16;4985564;28;20727;-27
2024/03/24 09:49:26;;;;;;;1.20;1.10;;;;;;;19.79;49.75;96610.03;4996775;28;20212;-27
2024/03/24 09:51:51;;;;;;;2.00;1.17;;;;;;;19.80;47.72;96607.50;4980194;28;20574;-28
2024/03/24 09:54:17;;;;;;;1.90;1.30;;;;;;;19.79;45.53;96608.34;4977556;28;20229;-27
2024/03/24 09:56:43;;;;;;;1.47;1.20;;;;;;;19.77;45.35;96599.78;5000403;28;20209;-27
2024/03/24 09:59:08;;;;;;;1.27;1.10;;;;;;;19.81;46.55;96606.66;4978745;28;20230;-28
2024/03/24 10:01:38;;;;;;;1.77;1.13;;;;;;;19.74;47.23;96597.19;4996454;28;20212;-41
2024/03/24 10:04:07;;;;;;;1.37;1.13;;;;;;;19.75;47.85;96606.53;4990598;28;20213;-28
2024/03/24 10:06:33;;;;;;;1.30;1.20;;;;;;;19.73;48.05;96608.22;4996329;28;20598;-35
2024/03/24 10:08:58;;;;;;;1.40;1.30;;;;;;;19.74;47.96;96606.50;5003770;28;20206;-30
2024/03/24 10:11:31;;;;;;;1.53;1.20;;;;;;;19.74;48.56;96602.28;4998536;28;20627;-26
2024/03/24 10:13:59;;;;;;;1.70;1.20;;;;;;;19.74;49.14;96602.28;4997145;28;20222;-27
2024/03/24 10:16:24;;;;;;;1.47;1.20;;;;;;;19.75;49.32;96600.59;4998964;28;20199;-27
2024/03/24 10:18:50;;;;;;;1.30;1.20;;;;;;;19.76;49.38;96600.63;5002301;28;20202;-32
2024/03/24 10:21:17;;;;;;;0.90;0.90;;;;;;;19.76;49.67;96595.53;5008591;28;20209;-27
2024/03/24 10:23:43;;;;;;;1.63;1.10;;;;;;;19.75;49.54;96598.88;5004803;28;20226;-29
2024/03/24 10:26:08;;;;;;;1.30;1.20;;;;;;;19.77;49.71;96594.69;5000143;28;20201;-27
2024/03/24 10:28:34;;;;;;;1.30;1.20;;;;;;;19.78;49.69;96598.13;4997926;28;20582;-29
2024/03/24 10:31:09;;;;;;;3.23;1.40;;;;;;;19.79;49.07;96599.81;4990539;28;20209;-34
2024/03/24 10:33:36;;;;;;;1.50;1.30;;;;;;;19.78;47.48;96593.00;4998876;28;20221;-26
2024/03/24 10:36:03;;;;;;;2.20;1.23;;;;;;;19.78;47.90;96591.31;5002261;28;20201;-27
2024/03/24 10:38:29;;;;;;;1.40;1.30;;;;;;;19.78;48.55;96593.84;5000714;28;20265;-26
2024/03/24 10:40:56;;;;;;;1.77;1.30;;;;;;;19.78;48.93;96593.84;5003038;28;20226;-26
2024/03/24 10:43:23;;;;;;;2.47;1.20;;;;;;;19.79;49.37;96592.19;5007943;28;20779;-26
2024/03/24 10:45:49;;;;;;;1.03;0.93;;;;;;;19.78;49.59;96587.91;4997132;28;20233;-27
2024/03/24 10:48:19;;;;;;;1.50;1.20;;;;;;;19.74;49.73;96589.53;5006310;28;20198;-26
2024/03/24 10:50:45;;;;;;;1.20;1.10;;;;;;;19.74;50.15;96593.75;5002950;28;20210;-28
2024/03/24 10:53:13;;;;;;;1.20;1.10;;;;;;;19.72;49.89;96591.16;5007122;28;20238;-29
2024/03/24 10:55:41;;;;;;;1.20;1.10;;;;;;;19.72;49.86;96582.69;5007358;28;20210;-27
2024/03/24 10:58:07;;;;;;;1.67;1.10;;;;;;;19.74;49.90;96581.00;4973059;28;20206;-29
2024/03/24 11:00:32;;;;;;;9.70;1.50;;;;;;;19.74;50.06;96581.00;4988111;28;20282;-27
2024/03/24 11:02:58;;;;;;;1.00;1.00;;;;;;;19.74;49.90;96579.34;4964663;28;20234;-28
2024/03/24 11:05:24;;;;;;;1.30;1.20;;;;;;;19.74;49.86;96574.22;5005800;28;20198;-27
2024/03/24 11:07:50;;;;;;;2.37;1.40;;;;;;;19.76;50.04;96571.72;4997144;28;20336;-27
2024/03/24 11:10:16;;;;;;;1.30;1.20;;;;;;;19.75;49.87;96575.94;4992136;28;20587;-26
2024/03/24 11:12:41;;;;;;;1.30;1.20;;;;;;;19.74;50.15;96573.38;4990960;28;20220;-28
2024/03/24 11:15:10;;;;;;;2.50;1.23;;;;;;;19.71;50.12;96565.66;4988829;28;20230;-27
2024/03/24 11:17:35;;;;;;;1.33;1.20;;;;;;;19.77;50.08;96576.84;5005557;28;20202;-28
2024/03/24 11:20:05;;;;;;;1.30;1.13;;;;;;;19.78;50.31;96580.28;4983247;28;20236;-26
2024/03/24 11:22:42;;;;;;;1.77;1.20;;;;;;;19.78;49.88;96576.00;5002242;28;20202;-27
2024/03/24 11:25:08;;;;;;;1.40;1.30;;;;;;;19.79;50.34;96569.22;4990550;28;20691;-26
2024/03/24 11:27:41;;;;;;;1.30;1.20;;;;;;;19.77;50.34;96564.09;4999146;28;20232;-26